Prentiss, North Carolina
Current Conditions -  °F | °C
As of 8:15 PM on Saturday 25 Oct 2014 (Local Time) from KRHP Reporting Station
Overcast Overcast  
Wind Chill: 57°   Ceiling: 4300
Heat Index: 57°   Visibility: 10mi
Dew Point: 52°   Wind: 3mph
Humidity: 84%   Direction: 290°WNW
Pressure: 30.05"   Gusts: NA
Location:  35.1737°N, 83.4215°W
Report Text: KRHP 260015Z AUTO 29003KT 10SM OVC043 14/11 A3005 RMK AO2 T01390113
Loading
Personal Weather Stations






























Interactive Weather Map
Tropical Storm Tracking
New forecast layout! Learn more

10-Day Weather Forecast

Advertisements
Track Severe Weather on mobile